Time;durP1;ratioP1;P1;durP2;ratioP2;P2;SDS_P1;SDS_P2;PMS_P1;PMS_P2;Temp;Humidity;BMP_temperature;BMP_pressure;BME280_temperature;BME280_humidity;BME280_pressure;Samples;Min_cycle;Max_cycle;Signal;HPM_P1;HPM_P2
2022/01/13 00:02:28;;;;;;;42.47;11.13;;;;;;;3.92;97.53;104101.28;5054257;28;20028;-47
2022/01/13 00:04:53;;;;;;;59.72;10.70;;;;;;;3.86;97.06;104098.16;5055565;28;20017;-49
2022/01/13 00:07:18;;;;;;;32.65;11.35;;;;;;;3.92;97.11;104097.91;5055877;28;20028;-48
2022/01/13 00:09:44;;;;;;;39.42;10.65;;;;;;;3.83;97.47;104099.94;5055470;28;20099;-48
2022/01/13 00:12:10;;;;;;;37.38;10.60;;;;;;;3.87;97.29;104105.75;5055668;28;20025;-49
2022/01/13 00:24:48;;;;;;;52.40;10.75;;;;;;;3.76;97.71;104097.66;5055136;28;20036;-48
2022/01/13 00:27:15;;;;;;;53.78;10.73;;;;;;;3.79;98.46;104095.81;5055267;28;20017;-48
2022/01/13 00:29:43;;;;;;;53.60;10.13;;;;;;;3.74;97.60;104102.00;5054166;28;20036;-47
2022/01/13 00:32:12;;;;;;;63.88;10.02;;;;;;;3.85;98.09;104092.19;5054205;28;20056;-46
2022/01/13 00:34:38;;;;;;;39.58;10.65;;;;;;;3.88;97.51;104093.78;5054261;28;20037;-47
2022/01/13 00:37:03;;;;;;;51.50;11.82;;;;;;;3.76;97.43;104100.22;5052994;28;20364;-45
2022/01/13 00:39:29;;;;;;;64.78;10.48;;;;;;;3.70;98.22;104088.50;5054392;28;20031;-47
2022/01/13 00:41:54;;;;;;;57.85;9.40;;;;;;;3.77;98.23;104086.53;5054208;28;20464;-46
2022/01/13 00:44:21;;;;;;;66.28;10.98;;;;;;;3.58;98.32;104079.59;5054291;28;20025;-47
2022/01/13 00:46:59;;;;;;;52.55;10.23;;;;;;;3.71;98.09;104084.22;5054063;28;20053;-46
2022/01/13 00:49:25;;;;;;;51.17;10.02;;;;;;;3.67;98.32;104085.25;5053948;28;20083;-47
2022/01/13 00:51:51;;;;;;;62.63;10.40;;;;;;;3.77;98.13;104076.31;5054226;28;20017;-49
2022/01/13 00:54:16;;;;;;;64.28;10.32;;;;;;;3.68;98.37;104084.34;5053858;28;20069;-47
2022/01/13 00:56:42;;;;;;;39.60;11.18;;;;;;;3.71;98.83;104079.97;5053608;28;20056;-48
2022/01/13 00:59:10;;;;;;;37.55;9.88;;;;;;;3.86;98.83;104085.38;5054575;28;20021;-48
2022/01/13 01:01:56;;;;;;;83.53;12.23;;;;;;;3.78;98.16;104094.16;5054832;28;20045;-47
2022/01/13 01:04:23;;;;;;;53.58;9.82;;;;;;;3.78;98.93;104091.59;5053055;28;20522;-47
2022/01/13 01:06:50;;;;;;;63.97;10.23;;;;;;;3.73;98.93;104095.25;5053105;28;20387;-48
2022/01/13 01:09:21;;;;;;;78.93;11.20;;;;;;;3.81;99.05;104095.78;5054683;28;20087;-48
2022/01/13 01:11:48;;;;;;;52.15;9.90;;;;;;;3.73;98.28;104096.06;5054436;28;20384;-48
2022/01/13 01:14:15;;;;;;;69.55;10.73;;;;;;;3.85;98.77;104099.84;5054302;28;20025;-48
2022/01/13 01:16:40;;;;;;;76.00;11.93;;;;;;;3.92;98.41;104100.47;5054061;28;20072;-48
2022/01/13 01:19:08;;;;;;;58.22;11.82;;;;;;;3.95;97.11;104103.72;5053962;28;20024;-48
2022/01/13 01:31:44;;;;;;;79.30;11.57;;;;;;;3.90;98.15;104100.50;5054102;28;20051;-48
2022/01/13 01:36:35;;;;;;;84.88;11.32;;;;;;;3.88;98.96;104101.47;5054177;28;20048;-48
2022/01/13 01:39:01;;;;;;;99.40;11.35;;;;;;;3.82;99.19;104095.69;5053876;28;20029;-48
2022/01/13 01:41:27;;;;;;;65.63;10.15;;;;;;;3.87;98.67;104080.16;5053834;28;20032;-48
2022/01/13 01:43:57;;;;;;;76.40;10.48;;;;;;;3.95;98.37;104080.69;5052484;28;20025;-48
2022/01/13 01:46:23;;;;;;;92.93;10.82;;;;;;;4.09;98.35;104082.69;5053377;28;20024;-48
2022/01/13 01:48:49;;;;;;;66.85;10.93;;;;;;;3.75;98.19;104078.94;5053727;28;20442;-49
2022/01/13 01:51:14;;;;;;;51.88;9.93;;;;;;;3.81;99.02;104086.38;5053855;28;20025;-48
2022/01/13 01:53:40;;;;;;;64.65;10.98;;;;;;;3.84;99.41;104090.53;5052436;28;20062;-48
2022/01/13 01:56:05;;;;;;;93.10;11.80;;;;;;;3.83;98.83;104086.31;5053556;28;20024;-47
2022/01/13 01:58:32;;;;;;;39.75;10.35;;;;;;;3.92;99.04;104091.06;5052342;28;20025;-47
2022/01/13 02:00:58;;;;;;;89.45;12.48;;;;;;;3.87;99.05;104092.97;5054343;28;20107;-49
2022/01/13 02:03:24;;;;;;;73.57;10.23;;;;;;;3.84;98.99;104093.09;5053438;28;20052;-48
2022/01/13 02:05:49;;;;;;;104.35;12.02;;;;;;;4.00;99.44;104090.72;5053745;28;20021;-48
2022/01/13 02:08:15;;;;;;;97.38;12.02;;;;;;;3.91;99.22;104083.44;5054547;28;20032;-48
2022/01/13 02:10:40;;;;;;;100.18;12.75;;;;;;;3.91;98.78;104084.25;5053721;28;20029;-48
2022/01/13 02:13:10;;;;;;;75.90;11.57;;;;;;;4.01;99.25;104074.50;5053318;28;20020;-48
2022/01/13 02:15:48;;;;;;;73.38;11.82;;;;;;;3.94;99.02;104076.47;5053313;28;20114;-49
2022/01/13 02:18:14;;;;;;;68.95;11.93;;;;;;;4.02;99.40;104073.59;5053419;28;20087;-48
2022/01/13 02:20:44;;;;;;;97.97;11.68;;;;;;;4.02;99.42;104073.59;5052106;28;20107;-48
2022/01/13 02:23:10;;;;;;;116.85;13.60;;;;;;;3.89;99.30;104075.81;5052045;28;20071;-47
2022/01/13 02:25:35;;;;;;;60.72;10.23;;;;;;;3.84;99.43;104067.50;5052088;28;20025;-48
2022/01/13 02:28:01;;;;;;;72.03;11.18;;;;;;;3.93;99.21;104067.13;5053784;28;20075;-48
2022/01/13 02:30:26;;;;;;;97.75;11.75;;;;;;;3.99;99.10;104077.09;5053207;28;20051;-48
2022/01/13 02:32:51;;;;;;;124.28;12.38;;;;;;;3.86;99.32;104065.72;5053247;28;20029;-49
2022/01/13 02:35:17;;;;;;;102.82;12.45;;;;;;;4.02;98.85;104061.63;5053061;28;20025;-48
2022/01/13 02:37:42;;;;;;;90.32;10.70;;;;;;;3.90;98.69;104067.25;5053187;28;20039;-47
2022/01/13 02:40:08;;;;;;;91.28;12.02;;;;;;;3.95;99.10;104056.84;5051964;28;20052;-49
2022/01/13 02:42:33;;;;;;;66.07;10.95;;;;;;;4.05;99.76;104055.53;5053347;28;20029;-48
2022/01/13 02:45:04;;;;;;;102.15;12.63;;;;;;;4.04;98.64;104053.88;5053258;28;20021;-48
2022/01/13 02:47:47;;;;;;;79.43;10.90;;;;;;;3.96;98.78;104051.63;5053067;28;20025;-48
2022/01/13 02:50:13;;;;;;;79.47;14.77;;;;;;;4.02;99.69;104046.25;5051876;28;20036;-48
2022/01/13 02:52:39;;;;;;;111.03;10.95;;;;;;;3.93;98.88;104043.25;5053297;28;20021;-48
2022/01/13 02:55:06;;;;;;;68.78;10.93;;;;;;;3.91;99.77;104045.88;5052904;28;20021;-48
2022/01/13 02:57:32;;;;;;;59.92;10.70;;;;;;;3.99;99.37;104048.94;5053599;28;20480;-48
2022/01/13 02:59:58;;;;;;;66.55;11.40;;;;;;;4.04;99.53;104049.59;5056822;28;20020;-49
2022/01/13 03:02:29;;;;;;;80.97;12.10;;;;;;;4.05;99.26;104053.81;5056791;28;20036;-48
2022/01/13 03:04:54;;;;;;;70.43;11.75;;;;;;;4.07;99.00;104048.63;5057013;28;20021;-47
2022/01/13 03:07:20;;;;;;;86.82;12.07;;;;;;;3.98;98.50;104051.59;5056644;28;20525;-47
2022/01/13 03:09:46;;;;;;;65.78;10.15;;;;;;;3.98;99.17;104049.84;5056724;28;20032;-49
2022/01/13 03:12:12;;;;;;;79.75;11.13;;;;;;;3.98;99.64;104044.75;5056710;28;20369;-47
2022/01/13 03:14:39;;;;;;;61.83;13.10;;;;;;;4.06;99.30;104039.31;5055300;28;20037;-46
2022/01/13 03:17:05;;;;;;;61.30;11.52;;;;;;;4.05;99.17;104038.44;5056571;28;20032;-48
2022/01/13 03:19:31;;;;;;;60.72;10.93;;;;;;;4.10;98.80;104050.25;5038647;28;20037;-48
2022/01/13 03:21:58;;;;;;;86.40;11.07;;;;;;;4.02;99.19;104042.88;5055261;28;20035;-47
2022/01/13 03:24:24;;;;;;;74.38;11.50;;;;;;;4.07;99.91;104036.66;5055255;28;20038;-48
2022/01/13 03:26:49;;;;;;;110.50;11.63;;;;;;;3.92;99.72;104034.75;5055206;28;20032;-48
2022/01/13 03:29:16;;;;;;;177.07;13.32;;;;;;;3.95;99.29;104026.94;5056478;28;20020;-48
2022/01/13 03:31:44;;;;;;;86.00;11.93;;;;;;;4.02;99.77;104024.97;5056558;28;20031;-47
2022/01/13 03:34:11;;;;;;;80.18;13.23;;;;;;;4.02;99.53;104032.63;5056298;28;20082;-47
2022/01/13 03:36:36;;;;;;;87.78;11.90;;;;;;;4.00;99.91;104039.53;5056121;28;20021;-49
2022/01/13 03:39:05;;;;;;;109.90;12.75;;;;;;;4.03;99.52;104032.59;5054916;28;20040;-48
2022/01/13 03:41:30;;;;;;;81.03;12.05;;;;;;;4.15;99.65;104026.13;5056058;28;20423;-48
2022/01/13 03:43:57;;;;;;;148.85;13.85;;;;;;;4.05;99.62;104029.94;5056360;28;20025;-48
2022/01/13 03:46:22;;;;;;;92.07;12.18;;;;;;;4.05;100.00;104020.53;5056233;28;20029;-48
2022/01/13 03:48:48;;;;;;;118.15;13.40;;;;;;;4.06;100.00;104018.84;5054738;28;20020;-54
2022/01/13 03:51:13;;;;;;;117.40;13.48;;;;;;;4.11;100.00;104011.78;5055851;28;20025;-47
2022/01/13 03:53:38;;;;;;;138.25;14.55;;;;;;;4.26;99.81;104021.38;5054720;28;20025;-47
2022/01/13 03:56:41;;;;;;;89.50;13.90;;;;;;;4.10;99.25;104025.47;5055754;28;20025;-47
2022/01/13 03:59:43;;;;;;;111.80;12.05;;;;;;;4.01;100.00;104010.50;5055763;28;20039;-47
2022/01/13 04:02:11;;;;;;;103.32;12.70;;;;;;;4.10;100.00;104007.56;5055944;28;20047;-48
2022/01/13 04:04:38;;;;;;;84.63;13.20;;;;;;;4.17;100.00;104006.41;5055669;28;20464;-47
2022/01/13 04:07:15;;;;;;;108.15;13.05;;;;;;;4.07;100.00;104011.06;5055892;28;20450;-52
2022/01/13 04:09:40;;;;;;;83.07;12.90;;;;;;;4.12;99.98;104012.63;5055579;28;20029;-47
2022/01/13 04:12:08;;;;;;;84.10;12.95;;;;;;;4.05;100.00;104022.28;5055494;28;20029;-47
2022/01/13 04:15:19;;;;;;;120.65;14.00;;;;;;;4.10;100.00;104024.66;5055688;28;20039;-47
2022/01/13 04:17:24;;;;;;;122.80;13.50;;;;;;;4.20;100.00;104020.78;5052261;28;20068;-46
2022/01/13 04:19:50;;;;;;;128.27;15.30;;;;;;;4.15;99.55;104015.88;5055675;28;20057;-47
2022/01/13 04:22:18;;;;;;;133.32;14.02;;;;;;;4.04;100.00;104007.81;5055326;28;20112;-48
2022/01/13 04:24:50;;;;;;;91.05;12.75;;;;;;;4.19;100.00;104014.84;5055243;28;20033;-48
2022/01/13 04:27:22;;;;;;;135.13;14.77;;;;;;;4.09;100.00;104013.59;5054483;28;20361;-48
2022/01/13 04:29:59;;;;;;;117.73;13.37;;;;;;;4.02;100.00;104007.03;5053900;28;20104;-48
2022/01/13 04:32:25;;;;;;;114.20;13.13;;;;;;;4.18;100.00;104005.50;5053924;28;20074;-47
2022/01/13 04:34:50;;;;;;;95.22;12.38;;;;;;;4.18;100.00;104013.19;5055046;28;20423;-47
2022/01/13 04:37:15;;;;;;;134.63;14.05;;;;;;;4.18;100.00;104022.59;5054985;28;20033;-47
2022/01/13 04:39:41;;;;;;;121.43;13.35;;;;;;;4.18;100.00;104014.91;5055271;28;20033;-47
2022/01/13 04:42:07;;;;;;;107.20;13.88;;;;;;;4.19;100.00;104014.00;5055243;28;20381;-49
2022/01/13 04:44:32;;;;;;;97.65;12.68;;;;;;;4.18;100.00;104004.69;5055422;28;20095;-48
2022/01/13 04:46:58;;;;;;;75.10;12.57;;;;;;;4.24;99.87;104012.91;5054784;28;20017;-48
2022/01/13 04:49:23;;;;;;;84.40;12.95;;;;;;;4.14;100.00;104019.31;5054835;28;20037;-48
2022/01/13 04:51:50;;;;;;;86.95;13.60;;;;;;;4.16;100.00;104014.16;5053525;28;20447;-48
2022/01/13 04:54:17;;;;;;;84.97;11.65;;;;;;;4.20;99.97;104019.09;5054998;28;20021;-48
2022/01/13 04:56:53;;;;;;;77.28;13.27;;;;;;;4.12;100.00;104030.53;5054553;28;20082;-48
2022/01/13 04:59:18;;;;;;;92.97;12.90;;;;;;;4.22;100.00;104014.72;5054603;28;20029;-48
2022/01/13 05:01:44;;;;;;;69.97;13.27;;;;;;;4.23;100.00;104018.94;5053296;28;20607;-48
2022/01/13 05:04:10;;;;;;;101.10;14.20;;;;;;;4.39;100.00;104020.84;5053779;28;20028;-49
2022/01/13 05:06:35;;;;;;;95.40;12.88;;;;;;;4.35;99.73;104022.69;5053099;28;20486;-47
2022/01/13 05:09:01;;;;;;;115.95;15.15;;;;;;;4.33;98.92;104026.22;5054273;28;20172;-48
2022/01/13 05:11:27;;;;;;;89.25;13.38;;;;;;;4.16;99.97;104016.69;5054319;28;20024;-48
2022/01/13 05:13:53;;;;;;;90.65;13.40;;;;;;;4.12;100.00;104020.31;5054283;28;20382;-47
2022/01/13 05:18:54;;;;;;;166.05;15.85;;;;;;;4.17;100.00;104021.78;5054138;28;20036;-48
2022/01/13 05:21:44;;;;;;;116.20;13.20;;;;;;;4.10;100.00;104020.34;5053406;28;20021;-47
2022/01/13 05:24:09;;;;;;;115.10;15.95;;;;;;;4.14;100.00;104016.75;5053986;28;20021;-48
2022/01/13 05:26:34;;;;;;;136.80;13.82;;;;;;;4.28;100.00;104013.59;5052627;28;20032;-48
2022/01/13 05:29:00;;;;;;;105.88;13.82;;;;;;;4.23;100.00;104010.41;5052549;28;20025;-48
2022/01/13 05:31:25;;;;;;;101.90;13.02;;;;;;;4.18;100.00;104018.31;5053794;28;20113;-47
2022/01/13 05:33:50;;;;;;;121.68;15.48;;;;;;;4.22;100.00;104019.00;5054044;28;20059;-48
2022/01/13 05:36:16;;;;;;;79.35;14.23;;;;;;;4.21;100.00;104015.63;5053667;28;20466;-48
2022/01/13 05:38:44;;;;;;;92.18;13.93;;;;;;;4.29;100.00;104025.53;5052444;28;20055;-47
2022/01/13 05:41:10;;;;;;;113.25;14.10;;;;;;;4.22;100.00;104024.94;5053561;28;20017;-46
2022/01/13 05:43:35;;;;;;;84.57;12.60;;;;;;;4.27;100.00;104024.75;5052600;28;20048;-47
2022/01/13 05:46:02;;;;;;;70.95;12.85;;;;;;;4.30;100.00;104025.44;5053802;28;20062;-48
2022/01/13 05:48:27;;;;;;;104.60;14.85;;;;;;;4.29;100.00;104030.66;5052239;28;20392;-53
2022/01/13 05:50:53;;;;;;;107.68;13.02;;;;;;;4.20;100.00;104031.03;5053557;28;20035;-48
2022/01/13 05:53:18;;;;;;;132.07;13.45;;;;;;;4.28;100.00;104027.25;5053695;28;20032;-47
2022/01/13 05:55:43;;;;;;;109.70;14.70;;;;;;;4.33;100.00;104031.34;5053312;28;20021;-47
2022/01/13 05:58:09;;;;;;;93.85;12.93;;;;;;;4.26;100.00;104025.66;5053424;28;20056;-48
2022/01/13 06:00:34;;;;;;;77.20;12.48;;;;;;;4.25;100.00;104027.38;5052031;28;20028;-48
2022/01/13 06:02:59;;;;;;;129.20;14.02;;;;;;;4.30;100.00;104030.56;5053288;28;20507;-48
2022/01/13 06:05:26;;;;;;;64.38;12.05;;;;;;;4.48;100.00;104031.50;5053264;28;20099;-48
2022/01/13 06:07:52;;;;;;;132.00;14.60;;;;;;;4.44;100.00;104027.41;5053297;28;20037;-48
2022/01/13 06:10:19;;;;;;;113.97;14.20;;;;;;;4.38;100.00;104025.13;5051889;28;20028;-48
2022/01/13 06:12:49;;;;;;;113.97;13.52;;;;;;;4.46;100.00;104035.88;5053106;28;20036;-48
2022/01/13 06:15:18;;;;;;;96.03;13.52;;;;;;;4.49;100.00;104033.19;5051512;28;20053;-47
2022/01/13 06:17:44;;;;;;;64.82;12.30;;;;;;;4.50;100.00;104027.16;5051770;28;20033;-46
2022/01/13 06:20:11;;;;;;;73.10;12.88;;;;;;;4.51;100.00;104025.41;5052164;28;20028;-46
2022/01/13 06:22:38;;;;;;;58.15;12.43;;;;;;;4.44;100.00;104027.41;5053594;28;20040;-47
2022/01/13 06:25:04;;;;;;;62.30;12.90;;;;;;;4.42;99.85;104021.53;5053564;28;20021;-46
2022/01/13 06:27:30;;;;;;;104.35;13.65;;;;;;;4.39;100.00;104029.34;5053209;28;20036;-46
2022/01/13 06:29:55;;;;;;;75.22;12.88;;;;;;;4.43;100.00;104033.44;5052842;28;20029;-47
2022/01/13 06:32:21;;;;;;;80.40;12.23;;;;;;;4.51;100.00;104030.53;5054766;28;20035;-48
2022/01/13 06:34:47;;;;;;;78.10;12.23;;;;;;;4.44;100.00;104034.28;5057343;28;20113;-47
2022/01/13 06:37:13;;;;;;;104.55;14.25;;;;;;;4.59;100.00;104036.16;5056870;28;20040;-47
2022/01/13 06:39:38;;;;;;;45.90;12.55;;;;;;;4.65;99.97;104027.38;5056978;28;20464;-46
2022/01/13 06:42:04;;;;;;;73.68;13.00;;;;;;;4.73;99.08;104030.44;5057122;28;20107;-47
2022/01/13 06:44:29;;;;;;;87.97;13.45;;;;;;;4.55;99.62;104024.41;5057004;28;20029;-49
2022/01/13 06:46:55;;;;;;;71.07;12.07;;;;;;;4.68;98.76;104019.53;5055505;28;20471;-48
2022/01/13 06:49:21;;;;;;;71.45;14.05;;;;;;;4.65;98.80;104027.38;5056169;28;20037;-47
2022/01/13 06:51:46;;;;;;;63.08;12.40;;;;;;;4.57;99.41;104026.88;5057108;28;20068;-48
2022/01/13 06:54:12;;;;;;;101.50;14.65;;;;;;;4.53;99.38;104029.56;5055879;28;20021;-48
2022/01/13 06:56:37;;;;;;;70.70;13.68;;;;;;;4.60;99.20;104026.72;5056661;28;20028;-49
2022/01/13 06:59:09;;;;;;;65.40;13.32;;;;;;;4.43;99.41;104020.66;5056748;28;20407;-48
2022/01/13 07:01:34;;;;;;;75.35;13.60;;;;;;;4.51;99.48;104027.97;5055414;28;20025;-48
2022/01/13 07:03:59;;;;;;;66.80;13.10;;;;;;;4.45;99.78;104028.25;5055347;28;20028;-47
2022/01/13 07:06:24;;;;;;;65.10;13.27;;;;;;;4.25;100.00;104032.50;5056698;28;20053;-48
2022/01/13 07:08:50;;;;;;;75.10;14.50;;;;;;;4.28;100.00;104021.28;5056507;28;20021;-48
2022/01/13 07:11:15;;;;;;;72.43;13.85;;;;;;;4.29;100.00;104028.09;5056612;28;20029;-48
2022/01/13 07:13:40;;;;;;;79.70;14.77;;;;;;;4.40;100.00;104030.16;5056345;28;20056;-48
2022/01/13 07:16:06;;;;;;;80.85;15.38;;;;;;;4.37;100.00;104032.88;5055843;28;20045;-48
2022/01/13 07:18:38;;;;;;;70.35;13.43;;;;;;;4.35;99.88;104038.06;5056477;28;20039;-49
2022/01/13 07:21:04;;;;;;;72.60;14.53;;;;;;;4.33;100.00;104034.72;5054965;28;20071;-48
2022/01/13 07:23:29;;;;;;;69.25;13.85;;;;;;;4.36;99.48;104034.59;5056232;28;20267;-48
2022/01/13 07:25:54;;;;;;;80.45;14.40;;;;;;;4.46;99.27;104037.56;5056460;28;20105;-48
2022/01/13 07:28:20;;;;;;;77.13;16.25;;;;;;;4.41;99.99;104030.13;5054807;28;20021;-48
2022/01/13 07:30:45;;;;;;;110.50;16.30;;;;;;;4.47;99.73;104023.91;5056235;28;20135;-49
2022/01/13 07:33:10;;;;;;;115.70;16.00;;;;;;;4.41;99.83;104025.00;5054702;28;20083;-49
2022/01/13 07:35:35;;;;;;;71.35;15.80;;;;;;;4.39;99.44;104026.78;5056221;28;20071;-48
2022/01/13 07:38:01;;;;;;;83.03;15.00;;;;;;;4.35;99.97;104022.69;5055948;28;20036;-49
2022/01/13 07:40:26;;;;;;;84.55;15.18;;;;;;;4.48;99.69;104028.94;5056197;28;20052;-48
2022/01/13 07:42:52;;;;;;;81.95;14.27;;;;;;;4.41;99.58;104032.69;5055559;28;20021;-48
2022/01/13 07:45:18;;;;;;;75.20;13.73;;;;;;;4.35;100.00;104039.81;5055376;28;20023;-49
2022/01/13 07:47:44;;;;;;;73.28;14.20;;;;;;;4.37;99.68;104048.22;5054369;28;20021;-48
2022/01/13 07:50:11;;;;;;;72.32;13.50;;;;;;;4.46;99.93;104041.00;5055636;28;20036;-49
2022/01/13 07:52:36;;;;;;;60.13;14.77;;;;;;;4.55;99.60;104046.63;5054429;28;20103;-48
2022/01/13 07:55:03;;;;;;;77.75;14.73;;;;;;;4.55;99.13;104047.44;5055917;28;20056;-48
2022/01/13 07:57:28;;;;;;;79.65;15.07;;;;;;;4.53;99.44;104049.22;5054294;28;20064;-48
2022/01/13 07:59:54;;;;;;;85.57;15.02;;;;;;;4.60;99.96;104048.06;5054176;28;20044;-46
2022/01/13 08:02:19;;;;;;;67.22;15.75;;;;;;;4.61;99.60;104047.19;5052269;28;20677;-46
2022/01/13 08:04:45;;;;;;;67.25;15.43;;;;;;;4.75;99.50;104049.97;5053482;28;20021;-46
2022/01/13 08:07:10;;;;;;;104.50;16.90;;;;;;;4.55;98.55;104037.19;5054419;28;20112;-46
2022/01/13 08:09:35;;;;;;;71.13;14.63;;;;;;;4.60;99.17;104049.78;5054133;28;20025;-47
2022/01/13 08:12:01;;;;;;;68.18;15.45;;;;;;;4.55;99.30;104042.31;5054341;28;20029;-46
2022/01/13 08:14:26;;;;;;;82.43;15.75;;;;;;;4.61;99.26;104042.06;5054348;28;20029;-49
2022/01/13 08:16:56;;;;;;;77.00;14.38;;;;;;;4.61;98.92;104042.06;5052634;28;20082;-48
2022/01/13 08:22:05;;;;;;;74.68;15.88;;;;;;;4.64;99.79;104043.66;5054500;28;20376;-46
2022/01/13 08:24:30;;;;;;;97.38;17.67;;;;;;;4.59;99.58;104043.84;5053773;28;20025;-45
2022/01/13 08:26:57;;;;;;;83.57;15.48;;;;;;;4.57;99.29;104037.94;5053327;28;20016;-46
2022/01/13 08:29:22;;;;;;;70.65;16.15;;;;;;;4.67;99.53;104044.34;5053821;28;20135;-46
2022/01/13 08:31:47;;;;;;;82.47;16.10;;;;;;;4.82;99.17;104037.69;5054031;28;20024;-47
2022/01/13 08:34:14;;;;;;;68.07;15.70;;;;;;;4.75;99.12;104047.41;5054327;28;20029;-50
2022/01/13 08:36:39;;;;;;;75.85;14.77;;;;;;;4.79;98.84;104050.63;5053606;28;20021;-48
2022/01/13 08:39:04;;;;;;;80.78;15.32;;;;;;;4.71;98.58;104058.66;5054418;28;20119;-47
2022/01/13 08:41:30;;;;;;;76.47;15.70;;;;;;;4.67;99.02;104061.44;5053934;28;20024;-47
2022/01/13 08:43:55;;;;;;;63.97;14.82;;;;;;;4.80;99.50;104065.09;5053803;28;20021;-47
2022/01/13 08:46:21;;;;;;;76.13;17.02;;;;;;;4.80;98.25;104065.09;5052673;28;20056;-47
2022/01/13 08:48:46;;;;;;;80.28;16.48;;;;;;;4.59;99.33;104055.81;5053816;28;20078;-45
2022/01/13 08:51:12;;;;;;;71.15;15.50;;;;;;;4.73;99.52;104063.72;5053739;28;20100;-45
2022/01/13 08:53:38;;;;;;;72.63;16.90;;;;;;;4.79;98.99;104052.38;5052779;28;20032;-47
2022/01/13 08:56:04;;;;;;;85.63;17.17;;;;;;;4.86;99.27;104058.88;5053521;28;20053;-48
2022/01/13 08:58:29;;;;;;;69.65;17.38;;;;;;;4.81;99.57;104053.16;5054585;28;20112;-48
2022/01/13 09:00:56;;;;;;;71.55;17.58;;;;;;;4.97;99.33;104047.22;5054480;28;20067;-48
2022/01/13 09:03:21;;;;;;;80.05;16.65;;;;;;;4.87;99.28;104051.13;5036830;28;20111;-48
2022/01/13 09:05:46;;;;;;;73.32;17.42;;;;;;;4.98;99.11;104051.47;5054423;28;20503;-47
2022/01/13 09:08:12;;;;;;;70.85;16.83;;;;;;;5.02;98.98;104056.47;5053387;28;20440;-46
2022/01/13 09:10:40;;;;;;;72.72;16.98;;;;;;;4.90;98.97;104058.69;5053636;28;20109;-49
2022/01/13 09:13:14;;;;;;;60.33;16.00;;;;;;;4.85;99.48;104058.06;5054278;28;20024;-48
2022/01/13 09:15:45;;;;;;;49.08;14.57;;;;;;;4.81;99.26;104061.66;5053313;28;20499;-50
2022/01/13 09:18:32;;;;;;;58.65;15.15;;;;;;;4.96;100.00;104058.41;5053751;28;20029;-49
2022/01/13 09:20:58;;;;;;;56.25;14.70;;;;;;;5.04;98.94;104054.66;5053253;28;20627;-46
2022/01/13 09:23:23;;;;;;;55.05;14.10;;;;;;;5.06;99.13;104052.84;5052466;28;20105;-46
2022/01/13 09:25:48;;;;;;;57.92;14.07;;;;;;;4.96;99.07;104055.00;5053934;28;20101;-49
2022/01/13 09:28:14;;;;;;;49.88;13.98;;;;;;;5.05;99.02;104056.31;5054009;28;20028;-48
2022/01/13 09:30:39;;;;;;;58.15;14.60;;;;;;;5.23;98.79;104063.16;5053854;28;20429;-47
2022/01/13 09:33:05;;;;;;;44.50;12.52;;;;;;;5.10;99.17;104060.34;5054015;28;20035;-47
2022/01/13 09:35:31;;;;;;;46.75;12.77;;;;;;;5.15;99.05;104068.66;5053832;28;20032;-47
2022/01/13 09:37:57;;;;;;;52.47;13.60;;;;;;;5.30;98.89;104058.59;5053884;28;20028;-48
2022/01/13 09:40:22;;;;;;;40.75;12.13;;;;;;;5.38;98.85;104064.16;5054091;28;20104;-48
2022/01/13 09:42:48;;;;;;;41.90;12.65;;;;;;;5.38;98.29;104067.59;5054256;28;20029;-48
2022/01/13 09:45:16;;;;;;;43.42;12.77;;;;;;;5.37;98.21;104058.22;5054053;28;20036;-48
2022/01/13 09:47:43;;;;;;;43.55;12.40;;;;;;;5.42;98.25;104063.13;5053056;28;20074;-48
2022/01/13 09:50:13;;;;;;;34.00;11.88;;;;;;;5.47;98.02;104062.91;5053947;28;20017;-49
2022/01/13 09:52:39;;;;;;;35.65;12.05;;;;;;;5.51;97.79;104059.31;5052427;28;20087;-48
2022/01/13 09:55:09;;;;;;;38.28;11.98;;;;;;;5.48;98.36;104059.44;5053419;28;20029;-48
2022/01/13 09:57:35;;;;;;;43.22;11.88;;;;;;;5.57;98.42;104052.13;5053496;28;20388;-49
2022/01/13 10:00:01;;;;;;;43.88;12.32;;;;;;;5.53;98.23;104058.31;5052505;28;20021;-48
2022/01/13 10:02:29;;;;;;;61.33;23.27;;;;;;;5.53;98.71;104058.31;5052296;28;20519;-48
2022/01/13 10:04:56;;;;;;;59.75;19.30;;;;;;;5.80;98.61;104058.72;5053414;28;20032;-49
2022/01/13 10:07:42;;;;;;;64.00;28.92;;;;;;;5.62;98.08;104057.06;5051889;28;20085;-48
2022/01/13 10:10:16;;;;;;;47.78;13.25;;;;;;;5.63;98.45;104056.13;5053492;28;20040;-49
2022/01/13 10:12:45;;;;;;;46.88;16.83;;;;;;;5.65;98.57;104054.34;5052405;28;20341;-48
2022/01/13 10:17:59;;;;;;;41.28;12.43;;;;;;;5.73;98.76;104054.81;5052497;28;20239;-46
2022/01/13 10:20:25;;;;;;;53.22;17.20;;;;;;;5.92;98.07;104053.88;5051533;28;20550;-49
2022/01/13 10:22:51;;;;;;;37.75;12.55;;;;;;;5.70;98.35;104054.94;5053230;28;20426;-48
2022/01/13 10:25:30;;;;;;;60.80;19.40;;;;;;;5.76;98.42;104061.53;5053196;28;20017;-48
2022/01/13 10:28:09;;;;;;;60.22;15.23;;;;;;;5.80;98.73;104063.84;5053663;28;20021;-49
2022/01/13 10:30:36;;;;;;;40.67;12.05;;;;;;;5.88;98.27;104068.63;5052349;28;20021;-48
2022/01/13 10:33:17;;;;;;;40.35;12.90;;;;;;;5.91;98.43;104068.47;5053201;28;20387;-48
2022/01/13 10:35:42;;;;;;;39.00;12.63;;;;;;;5.96;98.21;104074.25;5053043;28;20115;-49
2022/01/13 10:38:08;;;;;;;41.22;12.02;;;;;;;5.94;98.01;104070.09;5053043;28;20123;-48
2022/01/13 10:40:39;;;;;;;37.63;12.15;;;;;;;5.99;97.65;104078.41;5053318;28;20100;-48
2022/01/13 10:43:06;;;;;;;43.25;11.95;;;;;;;5.94;97.69;104075.22;5052618;28;20112;-47
2022/01/13 10:45:40;;;;;;;35.53;12.15;;;;;;;5.93;97.72;104066.69;5052727;28;20044;-46
2022/01/13 10:48:19;;;;;;;39.63;11.68;;;;;;;5.99;97.65;104063.00;5051722;28;20025;-48
2022/01/13 10:50:57;;;;;;;43.20;10.80;;;;;;;5.94;98.20;104070.09;5053157;28;20021;-48
2022/01/13 10:53:24;;;;;;;47.95;11.63;;;;;;;5.89;98.13;104062.56;5052976;28;20493;-48
2022/01/13 10:55:59;;;;;;;39.17;11.93;;;;;;;5.93;98.55;104059.00;5053203;28;20439;-47
2022/01/13 10:58:27;;;;;;;39.95;12.13;;;;;;;6.05;97.74;104049.84;5052977;28;20029;-48
2022/01/13 11:00:55;;;;;;;50.00;19.67;;;;;;;6.06;97.70;104056.63;5052949;28;20033;-48
2022/01/13 11:03:23;;;;;;;62.13;14.98;;;;;;;6.10;97.25;104058.16;5053185;28;20456;-49
2022/01/13 11:05:57;;;;;;;51.88;17.35;;;;;;;6.02;97.88;104044.88;5052851;28;20325;-48
2022/01/13 11:08:31;;;;;;;48.75;15.48;;;;;;;6.10;97.34;104053.00;5052790;28;20525;-48
2022/01/13 11:11:02;;;;;;;38.95;13.02;;;;;;;6.01;97.36;104054.31;5053031;28;20529;-48
2022/01/13 11:13:31;;;;;;;51.63;14.43;;;;;;;6.04;97.94;104048.16;5052666;28;20444;-48
2022/01/13 11:15:57;;;;;;;49.53;13.35;;;;;;;6.04;97.22;104038.75;5051783;28;20041;-46
2022/01/13 11:18:28;;;;;;;59.85;14.15;;;;;;;6.07;97.45;104040.31;5051148;28;20032;-47
2022/01/13 11:20:55;;;;;;;48.88;15.25;;;;;;;6.02;98.13;104043.13;5038435;28;20029;-48
2022/01/13 11:23:24;;;;;;;59.38;15.00;;;;;;;5.89;98.12;104037.72;5054823;28;20555;-44
2022/01/13 11:25:52;;;;;;;48.70;15.05;;;;;;;6.06;98.43;104041.22;5053132;28;20035;-48
2022/01/13 11:28:18;;;;;;;55.53;15.07;;;;;;;5.88;98.12;104027.53;5055075;28;20027;-47
2022/01/13 11:30:43;;;;;;;44.35;14.90;;;;;;;6.03;98.02;104020.84;5055847;28;20029;-44
2022/01/13 11:33:09;;;;;;;51.28;15.18;;;;;;;6.13;97.68;104029.75;5053506;28;20361;-46
2022/01/13 11:35:42;;;;;;;53.92;15.07;;;;;;;6.06;97.06;104025.81;5056240;28;20025;-48
2022/01/13 11:38:08;;;;;;;;;;;;;;;5.94;97.83;104023.88;5056104;28;20029;-48
2022/01/13 11:40:45;;;;;;;57.88;14.25;;;;;;;5.91;98.34;104021.44;5054748;28;19919;-46
2022/01/13 11:43:25;;;;;;;58.63;16.17;;;;;;;6.01;98.10;104020.94;5054380;28;20442;-47
2022/01/13 11:45:51;;;;;;;56.58;15.23;;;;;;;6.01;97.82;104020.94;5055287;28;20044;-46
2022/01/13 11:48:21;;;;;;;42.78;14.00;;;;;;;6.06;97.80;104018.94;5056006;28;20035;-46